Delmont, South Dakota
Current Conditions -  °F | °C
As of 3:53 PM on Thursday 27 Nov 2014 (Local Time) from KMHE Reporting Station
Overcast Overcast  
Wind Chill: -1°   Ceiling: 10000
Heat Index: 15°   Visibility: 10mi
Dew Point:   Wind: 16mph
Humidity: 70%   Direction: 130°SE
Pressure: 30.23"   Gusts: NA
Location:  43.27°N, 98.16°W
Report Text: KMHE 272153Z AUTO 13014KT 10SM OVC100 M09/M14 A3023 RMK AO2 UPB44E53 SLP266 P0000 T10941139
Loading
Personal Weather Stations






























Interactive Weather Map New forecast layout! Learn more

10-Day Weather Forecast

Advertisements
Track Severe Weather on mobile